sensor_id;sensor_type;location;lat;lon;timestamp;P1;durP1;ratioP1;P2;durP2;ratioP2
67776;SDS011;54576;52.020;5.536;2022-12-20T00:01:14;5.57;;;2.55;;
67776;SDS011;54576;52.020;5.536;2022-12-20T00:03:44;3.53;;;1.98;;
67776;SDS011;54576;52.020;5.536;2022-12-20T00:06:12;3.85;;;1.60;;
67776;SDS011;54576;52.020;5.536;2022-12-20T00:08:39;4.60;;;2.20;;
67776;SDS011;54576;52.020;5.536;2022-12-20T00:11:05;5.00;;;1.88;;
67776;SDS011;54576;52.020;5.536;2022-12-20T00:13:34;6.28;;;1.92;;
67776;SDS011;54576;52.020;5.536;2022-12-20T00:16:10;5.20;;;2.17;;
67776;SDS011;54576;52.020;5.536;2022-12-20T00:18:41;2.80;;;2.05;;
67776;SDS011;54576;52.020;5.536;2022-12-20T00:21:10;5.88;;;2.83;;
67776;SDS011;54576;52.020;5.536;2022-12-20T00:23:38;2.63;;;1.98;;
67776;SDS011;54576;52.020;5.536;2022-12-20T00:26:05;4.65;;;1.65;;
67776;SDS011;54576;52.020;5.536;2022-12-20T00:28:36;3.03;;;2.10;;
67776;SDS011;54576;52.020;5.536;2022-12-20T00:31:03;6.63;;;2.05;;
67776;SDS011;54576;52.020;5.536;2022-12-20T00:33:30;2.50;;;1.85;;
67776;SDS011;54576;52.020;5.536;2022-12-20T00:35:56;3.05;;;1.85;;
67776;SDS011;54576;52.020;5.536;2022-12-20T00:38:23;6.78;;;1.90;;
67776;SDS011;54576;52.020;5.536;2022-12-20T00:41:02;3.38;;;1.98;;
67776;SDS011;54576;52.020;5.536;2022-12-20T00:43:33;3.15;;;2.08;;
67776;SDS011;54576;52.020;5.536;2022-12-20T00:46:00;4.35;;;1.92;;
67776;SDS011;54576;52.020;5.536;2022-12-20T00:48:26;6.22;;;1.80;;
67776;SDS011;54576;52.020;5.536;2022-12-20T00:50:56;2.40;;;1.88;;
67776;SDS011;54576;52.020;5.536;2022-12-20T00:53:26;3.58;;;1.70;;
67776;SDS011;54576;52.020;5.536;2022-12-20T00:55:52;5.25;;;2.10;;
67776;SDS011;54576;52.020;5.536;2022-12-20T00:58:22;3.50;;;1.92;;
67776;SDS011;54576;52.020;5.536;2022-12-20T01:00:49;6.05;;;2.25;;
67776;SDS011;54576;52.020;5.536;2022-12-20T01:03:15;4.60;;;2.10;;
67776;SDS011;54576;52.020;5.536;2022-12-20T01:05:48;3.10;;;1.80;;
67776;SDS011;54576;52.020;5.536;2022-12-20T01:08:18;4.07;;;2.22;;
67776;SDS011;54576;52.020;5.536;2022-12-20T01:10:45;4.47;;;1.85;;
67776;SDS011;54576;52.020;5.536;2022-12-20T01:13:11;4.90;;;2.15;;
67776;SDS011;54576;52.020;5.536;2022-12-20T01:15:37;11.85;;;2.20;;
67776;SDS011;54576;52.020;5.536;2022-12-20T01:18:02;4.30;;;2.20;;
67776;SDS011;54576;52.020;5.536;2022-12-20T01:20:28;3.78;;;1.95;;
67776;SDS011;54576;52.020;5.536;2022-12-20T01:22:54;9.60;;;2.40;;
67776;SDS011;54576;52.020;5.536;2022-12-20T01:25:20;2.92;;;2.05;;
67776;SDS011;54576;52.020;5.536;2022-12-20T01:27:45;4.40;;;2.53;;
67776;SDS011;54576;52.020;5.536;2022-12-20T01:30:11;5.05;;;1.60;;
67776;SDS011;54576;52.020;5.536;2022-12-20T01:32:36;2.72;;;2.08;;
67776;SDS011;54576;52.020;5.536;2022-12-20T01:35:02;6.35;;;2.25;;
67776;SDS011;54576;52.020;5.536;2022-12-20T01:37:28;6.38;;;2.25;;
67776;SDS011;54576;52.020;5.536;2022-12-20T01:39:55;8.75;;;2.15;;
67776;SDS011;54576;52.020;5.536;2022-12-20T01:42:22;7.50;;;2.30;;
67776;SDS011;54576;52.020;5.536;2022-12-20T01:44:50;4.13;;;2.72;;
67776;SDS011;54576;52.020;5.536;2022-12-20T01:47:19;5.47;;;2.63;;
67776;SDS011;54576;52.020;5.536;2022-12-20T01:49:47;4.15;;;2.60;;
67776;SDS011;54576;52.020;5.536;2022-12-20T01:52:36;5.28;;;2.50;;
67776;SDS011;54576;52.020;5.536;2022-12-20T01:55:09;7.65;;;2.78;;
67776;SDS011;54576;52.020;5.536;2022-12-20T02:00:15;6.55;;;2.30;;
67776;SDS011;54576;52.020;5.536;2022-12-20T02:02:42;4.32;;;2.50;;
67776;SDS011;54576;52.020;5.536;2022-12-20T02:05:12;2.75;;;2.40;;
67776;SDS011;54576;52.020;5.536;2022-12-20T02:07:40;7.03;;;3.03;;
67776;SDS011;54576;52.020;5.536;2022-12-20T02:10:07;3.30;;;2.97;;
67776;SDS011;54576;52.020;5.536;2022-12-20T02:12:39;8.00;;;2.83;;
67776;SDS011;54576;52.020;5.536;2022-12-20T02:15:19;4.22;;;3.25;;
67776;SDS011;54576;52.020;5.536;2022-12-20T02:18:03;6.82;;;2.70;;
67776;SDS011;54576;52.020;5.536;2022-12-20T02:23:39;6.40;;;3.05;;
67776;SDS011;54576;52.020;5.536;2022-12-20T02:26:30;3.90;;;2.33;;
67776;SDS011;54576;52.020;5.536;2022-12-20T02:29:24;5.65;;;2.65;;
67776;SDS011;54576;52.020;5.536;2022-12-20T02:34:36;4.40;;;3.00;;
67776;SDS011;54576;52.020;5.536;2022-12-20T02:37:05;4.20;;;3.30;;
67776;SDS011;54576;52.020;5.536;2022-12-20T02:39:31;3.95;;;2.63;;
67776;SDS011;54576;52.020;5.536;2022-12-20T02:42:06;5.70;;;2.95;;
67776;SDS011;54576;52.020;5.536;2022-12-20T02:44:33;6.97;;;2.60;;
67776;SDS011;54576;52.020;5.536;2022-12-20T02:47:23;8.07;;;2.72;;
67776;SDS011;54576;52.020;5.536;2022-12-20T02:49:53;8.13;;;2.90;;
67776;SDS011;54576;52.020;5.536;2022-12-20T02:52:20;4.25;;;3.03;;
67776;SDS011;54576;52.020;5.536;2022-12-20T02:54:51;5.93;;;3.00;;
67776;SDS011;54576;52.020;5.536;2022-12-20T02:57:25;3.13;;;2.65;;
67776;SDS011;54576;52.020;5.536;2022-12-20T03:00:01;3.83;;;2.50;;
67776;SDS011;54576;52.020;5.536;2022-12-20T03:02:34;4.20;;;2.80;;
67776;SDS011;54576;52.020;5.536;2022-12-20T03:05:20;7.03;;;3.03;;
67776;SDS011;54576;52.020;5.536;2022-12-20T03:07:47;4.85;;;2.60;;
67776;SDS011;54576;52.020;5.536;2022-12-20T03:10:14;5.07;;;2.63;;
67776;SDS011;54576;52.020;5.536;2022-12-20T03:12:41;7.47;;;3.08;;
67776;SDS011;54576;52.020;5.536;2022-12-20T03:15:06;10.05;;;3.03;;
67776;SDS011;54576;52.020;5.536;2022-12-20T03:17:33;6.10;;;2.78;;
67776;SDS011;54576;52.020;5.536;2022-12-20T03:19:59;3.85;;;2.78;;
67776;SDS011;54576;52.020;5.536;2022-12-20T03:22:24;10.70;;;2.75;;
67776;SDS011;54576;52.020;5.536;2022-12-20T03:24:51;10.25;;;3.55;;
67776;SDS011;54576;52.020;5.536;2022-12-20T03:27:16;3.78;;;2.67;;
67776;SDS011;54576;52.020;5.536;2022-12-20T03:29:42;5.45;;;2.85;;
67776;SDS011;54576;52.020;5.536;2022-12-20T03:32:09;4.00;;;2.85;;
67776;SDS011;54576;52.020;5.536;2022-12-20T03:34:36;4.80;;;2.40;;
67776;SDS011;54576;52.020;5.536;2022-12-20T03:37:02;3.83;;;2.53;;
67776;SDS011;54576;52.020;5.536;2022-12-20T03:39:28;6.03;;;2.50;;
67776;SDS011;54576;52.020;5.536;2022-12-20T03:41:54;7.25;;;2.38;;
67776;SDS011;54576;52.020;5.536;2022-12-20T03:44:19;4.82;;;2.90;;
67776;SDS011;54576;52.020;5.536;2022-12-20T03:46:45;3.00;;;2.33;;
67776;SDS011;54576;52.020;5.536;2022-12-20T03:49:14;2.47;;;2.20;;
67776;SDS011;54576;52.020;5.536;2022-12-20T03:51:43;4.93;;;2.33;;
67776;SDS011;54576;52.020;5.536;2022-12-20T03:54:08;4.35;;;2.50;;
67776;SDS011;54576;52.020;5.536;2022-12-20T03:56:34;4.00;;;2.28;;
67776;SDS011;54576;52.020;5.536;2022-12-20T03:59:01;2.45;;;1.55;;
67776;SDS011;54576;52.020;5.536;2022-12-20T04:01:27;7.88;;;2.38;;
67776;SDS011;54576;52.020;5.536;2022-12-20T04:03:53;6.43;;;2.17;;
67776;SDS011;54576;52.020;5.536;2022-12-20T04:06:20;11.80;;;3.20;;
67776;SDS011;54576;52.020;5.536;2022-12-20T04:08:46;6.18;;;2.40;;
67776;SDS011;54576;52.020;5.536;2022-12-20T04:11:12;4.70;;;2.00;;
67776;SDS011;54576;52.020;5.536;2022-12-20T04:13:48;3.55;;;2.08;;
67776;SDS011;54576;52.020;5.536;2022-12-20T04:16:17;4.97;;;2.30;;
67776;SDS011;54576;52.020;5.536;2022-12-20T04:21:10;2.05;;;1.73;;
67776;SDS011;54576;52.020;5.536;2022-12-20T04:23:38;4.97;;;2.13;;
67776;SDS011;54576;52.020;5.536;2022-12-20T04:26:09;7.75;;;2.03;;
67776;SDS011;54576;52.020;5.536;2022-12-20T04:28:35;3.38;;;1.90;;
67776;SDS011;54576;52.020;5.536;2022-12-20T04:31:00;9.13;;;1.70;;
67776;SDS011;54576;52.020;5.536;2022-12-20T04:33:27;2.75;;;1.95;;
67776;SDS011;54576;52.020;5.536;2022-12-20T04:35:53;5.53;;;2.05;;
67776;SDS011;54576;52.020;5.536;2022-12-20T04:38:20;6.50;;;2.22;;
67776;SDS011;54576;52.020;5.536;2022-12-20T04:40:50;5.07;;;1.80;;
67776;SDS011;54576;52.020;5.536;2022-12-20T04:43:17;2.72;;;1.75;;
67776;SDS011;54576;52.020;5.536;2022-12-20T04:45:44;2.97;;;1.92;;
67776;SDS011;54576;52.020;5.536;2022-12-20T04:48:11;4.63;;;2.13;;
67776;SDS011;54576;52.020;5.536;2022-12-20T04:50:37;5.38;;;2.30;;
67776;SDS011;54576;52.020;5.536;2022-12-20T04:53:03;3.63;;;2.17;;
67776;SDS011;54576;52.020;5.536;2022-12-20T04:55:47;3.50;;;1.80;;
67776;SDS011;54576;52.020;5.536;2022-12-20T04:58:19;3.20;;;2.17;;
67776;SDS011;54576;52.020;5.536;2022-12-20T05:00:45;4.75;;;1.80;;
67776;SDS011;54576;52.020;5.536;2022-12-20T05:03:11;1.90;;;1.75;;
67776;SDS011;54576;52.020;5.536;2022-12-20T05:05:38;5.05;;;2.08;;
67776;SDS011;54576;52.020;5.536;2022-12-20T05:08:04;2.28;;;2.05;;
67776;SDS011;54576;52.020;5.536;2022-12-20T05:10:30;2.58;;;2.38;;
67776;SDS011;54576;52.020;5.536;2022-12-20T05:12:55;8.23;;;2.50;;
67776;SDS011;54576;52.020;5.536;2022-12-20T05:15:21;5.22;;;1.98;;
67776;SDS011;54576;52.020;5.536;2022-12-20T05:17:46;5.70;;;2.45;;
67776;SDS011;54576;52.020;5.536;2022-12-20T05:20:12;4.55;;;2.75;;
67776;SDS011;54576;52.020;5.536;2022-12-20T05:22:38;2.88;;;2.40;;
67776;SDS011;54576;52.020;5.536;2022-12-20T05:25:22;4.13;;;2.05;;
67776;SDS011;54576;52.020;5.536;2022-12-20T05:28:09;6.00;;;2.75;;
67776;SDS011;54576;52.020;5.536;2022-12-20T05:30:35;3.40;;;2.25;;
67776;SDS011;54576;52.020;5.536;2022-12-20T05:33:00;5.18;;;2.53;;
67776;SDS011;54576;52.020;5.536;2022-12-20T05:35:26;6.53;;;2.78;;
67776;SDS011;54576;52.020;5.536;2022-12-20T05:37:52;5.38;;;2.65;;
67776;SDS011;54576;52.020;5.536;2022-12-20T05:40:17;5.10;;;2.75;;
67776;SDS011;54576;52.020;5.536;2022-12-20T05:42:43;8.10;;;2.70;;
67776;SDS011;54576;52.020;5.536;2022-12-20T05:45:08;7.72;;;2.63;;
67776;SDS011;54576;52.020;5.536;2022-12-20T05:47:35;5.45;;;2.58;;
67776;SDS011;54576;52.020;5.536;2022-12-20T05:50:01;3.60;;;2.33;;
67776;SDS011;54576;52.020;5.536;2022-12-20T05:52:28;7.30;;;2.65;;
67776;SDS011;54576;52.020;5.536;2022-12-20T05:54:54;6.70;;;3.15;;
67776;SDS011;54576;52.020;5.536;2022-12-20T05:57:20;2.97;;;2.65;;
67776;SDS011;54576;52.020;5.536;2022-12-20T05:59:47;7.75;;;2.70;;
67776;SDS011;54576;52.020;5.536;2022-12-20T06:02:12;9.13;;;2.70;;
67776;SDS011;54576;52.020;5.536;2022-12-20T06:04:38;4.53;;;2.58;;
67776;SDS011;54576;52.020;5.536;2022-12-20T06:07:04;4.38;;;2.72;;
67776;SDS011;54576;52.020;5.536;2022-12-20T06:09:30;8.30;;;2.63;;
67776;SDS011;54576;52.020;5.536;2022-12-20T06:11:57;4.07;;;2.33;;
67776;SDS011;54576;52.020;5.536;2022-12-20T06:14:23;5.03;;;2.17;;
67776;SDS011;54576;52.020;5.536;2022-12-20T06:16:50;3.55;;;2.33;;
67776;SDS011;54576;52.020;5.536;2022-12-20T06:19:17;5.57;;;2.13;;
67776;SDS011;54576;52.020;5.536;2022-12-20T06:21:43;4.22;;;2.10;;
67776;SDS011;54576;52.020;5.536;2022-12-20T06:24:08;2.75;;;2.00;;
67776;SDS011;54576;52.020;5.536;2022-12-20T06:26:34;2.42;;;1.85;;
67776;SDS011;54576;52.020;5.536;2022-12-20T06:29:03;3.35;;;2.13;;
67776;SDS011;54576;52.020;5.536;2022-12-20T06:31:34;5.78;;;2.20;;
67776;SDS011;54576;52.020;5.536;2022-12-20T06:34:00;3.20;;;2.03;;
67776;SDS011;54576;52.020;5.536;2022-12-20T06:36:26;2.30;;;1.80;;
67776;SDS011;54576;52.020;5.536;2022-12-20T06:38:51;6.28;;;1.80;;
67776;SDS011;54576;52.020;5.536;2022-12-20T06:41:17;7.38;;;1.92;;
67776;SDS011;54576;52.020;5.536;2022-12-20T06:43:44;2.33;;;1.77;;
67776;SDS011;54576;52.020;5.536;2022-12-20T06:46:10;3.03;;;1.73;;
67776;SDS011;54576;52.020;5.536;2022-12-20T06:48:36;7.78;;;2.03;;
67776;SDS011;54576;52.020;5.536;2022-12-20T06:51:01;1.63;;;1.52;;
67776;SDS011;54576;52.020;5.536;2022-12-20T06:53:27;11.05;;;2.13;;
67776;SDS011;54576;52.020;5.536;2022-12-20T06:55:53;4.70;;;1.80;;
67776;SDS011;54576;52.020;5.536;2022-12-20T06:58:18;5.03;;;1.55;;
67776;SDS011;54576;52.020;5.536;2022-12-20T07:00:46;5.93;;;1.60;;
67776;SDS011;54576;52.020;5.536;2022-12-20T07:03:12;1.63;;;1.42;;
67776;SDS011;54576;52.020;5.536;2022-12-20T07:05:38;6.35;;;1.95;;
67776;SDS011;54576;52.020;5.536;2022-12-20T07:08:04;3.20;;;1.77;;
67776;SDS011;54576;52.020;5.536;2022-12-20T07:10:35;7.10;;;2.10;;
67776;SDS011;54576;52.020;5.536;2022-12-20T07:13:04;2.28;;;1.70;;
67776;SDS011;54576;52.020;5.536;2022-12-20T07:15:30;6.13;;;2.00;;
67776;SDS011;54576;52.020;5.536;2022-12-20T07:17:56;4.18;;;1.60;;
67776;SDS011;54576;52.020;5.536;2022-12-20T07:20:22;3.10;;;1.67;;
67776;SDS011;54576;52.020;5.536;2022-12-20T07:22:49;4.50;;;1.50;;
67776;SDS011;54576;52.020;5.536;2022-12-20T07:25:14;5.88;;;1.50;;
67776;SDS011;54576;52.020;5.536;2022-12-20T07:27:40;2.92;;;1.80;;
67776;SDS011;54576;52.020;5.536;2022-12-20T07:30:06;4.18;;;1.50;;
67776;SDS011;54576;52.020;5.536;2022-12-20T07:32:32;5.22;;;2.30;;
67776;SDS011;54576;52.020;5.536;2022-12-20T07:34:58;3.38;;;1.58;;
67776;SDS011;54576;52.020;5.536;2022-12-20T07:37:23;4.75;;;1.33;;
67776;SDS011;54576;52.020;5.536;2022-12-20T07:39:49;3.95;;;1.40;;
67776;SDS011;54576;52.020;5.536;2022-12-20T07:42:14;2.40;;;1.50;;
67776;SDS011;54576;52.020;5.536;2022-12-20T07:44:40;3.97;;;1.27;;
67776;SDS011;54576;52.020;5.536;2022-12-20T07:47:06;8.48;;;1.50;;
67776;SDS011;54576;52.020;5.536;2022-12-20T07:49:33;3.05;;;1.42;;
67776;SDS011;54576;52.020;5.536;2022-12-20T07:51:59;3.25;;;1.65;;
67776;SDS011;54576;52.020;5.536;2022-12-20T07:54:30;5.32;;;1.42;;
67776;SDS011;54576;52.020;5.536;2022-12-20T07:57:00;3.10;;;1.10;;
67776;SDS011;54576;52.020;5.536;2022-12-20T07:59:35;2.03;;;1.23;;
67776;SDS011;54576;52.020;5.536;2022-12-20T08:02:06;4.05;;;1.50;;
67776;SDS011;54576;52.020;5.536;2022-12-20T08:04:35;4.20;;;1.83;;
67776;SDS011;54576;52.020;5.536;2022-12-20T08:07:02;2.58;;;1.30;;
67776;SDS011;54576;52.020;5.536;2022-12-20T08:09:28;5.47;;;1.20;;
67776;SDS011;54576;52.020;5.536;2022-12-20T08:11:59;9.63;;;1.23;;
67776;SDS011;54576;52.020;5.536;2022-12-20T08:14:28;2.20;;;1.23;;
67776;SDS011;54576;52.020;5.536;2022-12-20T08:16:53;3.03;;;1.52;;
67776;SDS011;54576;52.020;5.536;2022-12-20T08:19:19;2.88;;;1.15;;
67776;SDS011;54576;52.020;5.536;2022-12-20T08:21:45;1.73;;;1.63;;
67776;SDS011;54576;52.020;5.536;2022-12-20T08:24:10;1.75;;;1.20;;
67776;SDS011;54576;52.020;5.536;2022-12-20T08:26:37;2.70;;;1.35;;
67776;SDS011;54576;52.020;5.536;2022-12-20T08:29:06;3.15;;;1.58;;
67776;SDS011;54576;52.020;5.536;2022-12-20T08:31:35;2.13;;;1.20;;
67776;SDS011;54576;52.020;5.536;2022-12-20T08:34:02;2.85;;;1.35;;
67776;SDS011;54576;52.020;5.536;2022-12-20T08:36:28;3.63;;;1.65;;
67776;SDS011;54576;52.020;5.536;2022-12-20T08:38:54;3.88;;;1.35;;
67776;SDS011;54576;52.020;5.536;2022-12-20T08:41:19;3.88;;;1.30;;
67776;SDS011;54576;52.020;5.536;2022-12-20T08:43:45;3.60;;;1.48;;
67776;SDS011;54576;52.020;5.536;2022-12-20T08:46:11;3.83;;;0.93;;
67776;SDS011;54576;52.020;5.536;2022-12-20T08:48:37;2.38;;;1.40;;
67776;SDS011;54576;52.020;5.536;2022-12-20T08:51:04;1.58;;;1.20;;
67776;SDS011;54576;52.020;5.536;2022-12-20T08:53:32;2.97;;;1.38;;
67776;SDS011;54576;52.020;5.536;2022-12-20T08:56:06;3.83;;;1.77;;
67776;SDS011;54576;52.020;5.536;2022-12-20T08:58:39;2.60;;;1.40;;
67776;SDS011;54576;52.020;5.536;2022-12-20T09:01:07;3.97;;;2.10;;
67776;SDS011;54576;52.020;5.536;2022-12-20T09:03:35;3.95;;;1.52;;
67776;SDS011;54576;52.020;5.536;2022-12-20T09:06:04;5.07;;;1.55;;
67776;SDS011;54576;52.020;5.536;2022-12-20T09:08:32;6.43;;;2.58;;
67776;SDS011;54576;52.020;5.536;2022-12-20T09:11:02;6.38;;;1.90;;
67776;SDS011;54576;52.020;5.536;2022-12-20T09:13:39;3.22;;;1.52;;
67776;SDS011;54576;52.020;5.536;2022-12-20T09:16:06;5.97;;;1.95;;
67776;SDS011;54576;52.020;5.536;2022-12-20T09:18:33;3.78;;;1.92;;
67776;SDS011;54576;52.020;5.536;2022-12-20T09:21:00;6.10;;;2.13;;
67776;SDS011;54576;52.020;5.536;2022-12-20T09:23:26;3.55;;;1.77;;
67776;SDS011;54576;52.020;5.536;2022-12-20T09:25:53;5.35;;;1.90;;
67776;SDS011;54576;52.020;5.536;2022-12-20T09:28:19;4.50;;;1.90;;
67776;SDS011;54576;52.020;5.536;2022-12-20T09:30:45;3.55;;;1.90;;
67776;SDS011;54576;52.020;5.536;2022-12-20T09:33:11;4.35;;;1.77;;
67776;SDS011;54576;52.020;5.536;2022-12-20T09:35:43;10.85;;;2.47;;
67776;SDS011;54576;52.020;5.536;2022-12-20T09:38:12;5.50;;;2.05;;
67776;SDS011;54576;52.020;5.536;2022-12-20T09:40:39;5.50;;;1.95;;
67776;SDS011;54576;52.020;5.536;2022-12-20T09:43:11;4.25;;;2.00;;
67776;SDS011;54576;52.020;5.536;2022-12-20T09:45:38;4.38;;;2.00;;
67776;SDS011;54576;52.020;5.536;2022-12-20T09:48:05;6.68;;;2.25;;
67776;SDS011;54576;52.020;5.536;2022-12-20T09:51:21;3.60;;;1.67;;
67776;SDS011;54576;52.020;5.536;2022-12-20T09:56:44;6.93;;;1.60;;
67776;SDS011;54576;52.020;5.536;2022-12-20T09:59:17;5.25;;;2.15;;
67776;SDS011;54576;52.020;5.536;2022-12-20T10:01:46;8.18;;;1.98;;
67776;SDS011;54576;52.020;5.536;2022-12-20T10:04:21;6.75;;;2.22;;
67776;SDS011;54576;52.020;5.536;2022-12-20T10:09:42;5.65;;;2.38;;
67776;SDS011;54576;52.020;5.536;2022-12-20T10:22:53;5.35;;;2.15;;
67776;SDS011;54576;52.020;5.536;2022-12-20T10:25:28;6.78;;;2.45;;
67776;SDS011;54576;52.020;5.536;2022-12-20T10:27:59;5.50;;;2.00;;
67776;SDS011;54576;52.020;5.536;2022-12-20T10:30:28;8.73;;;3.38;;
67776;SDS011;54576;52.020;5.536;2022-12-20T10:32:56;3.15;;;2.30;;
67776;SDS011;54576;52.020;5.536;2022-12-20T10:35:24;7.72;;;2.72;;
67776;SDS011;54576;52.020;5.536;2022-12-20T10:40:33;8.25;;;2.63;;
67776;SDS011;54576;52.020;5.536;2022-12-20T10:43:03;3.10;;;2.38;;
67776;SDS011;54576;52.020;5.536;2022-12-20T10:45:38;4.20;;;1.98;;
67776;SDS011;54576;52.020;5.536;2022-12-20T10:53:22;7.70;;;2.90;;
67776;SDS011;54576;52.020;5.536;2022-12-20T10:55:52;5.85;;;2.47;;
67776;SDS011;54576;52.020;5.536;2022-12-20T10:58:30;3.00;;;2.67;;
67776;SDS011;54576;52.020;5.536;2022-12-20T11:01:03;10.25;;;3.80;;
67776;SDS011;54576;52.020;5.536;2022-12-20T11:03:59;5.60;;;2.42;;
67776;SDS011;54576;52.020;5.536;2022-12-20T11:09:11;8.77;;;3.25;;
67776;SDS011;54576;52.020;5.536;2022-12-20T11:12:03;10.63;;;3.15;;
67776;SDS011;54576;52.020;5.536;2022-12-20T11:14:44;5.47;;;3.28;;
67776;SDS011;54576;52.020;5.536;2022-12-20T11:20:21;6.72;;;2.38;;
67776;SDS011;54576;52.020;5.536;2022-12-20T11:25:53;6.18;;;2.33;;
67776;SDS011;54576;52.020;5.536;2022-12-20T11:31:15;13.82;;;2.40;;
67776;SDS011;54576;52.020;5.536;2022-12-20T11:36:49;13.00;;;5.97;;
67776;SDS011;54576;52.020;5.536;2022-12-20T11:39:34;3.95;;;2.88;;
67776;SDS011;54576;52.020;5.536;2022-12-20T11:50:44;5.45;;;2.58;;
67776;SDS011;54576;52.020;5.536;2022-12-20T11:53:24;7.18;;;2.78;;
67776;SDS011;54576;52.020;5.536;2022-12-20T11:56:33;7.00;;;3.70;;
67776;SDS011;54576;52.020;5.536;2022-12-20T11:58:50;6.57;;;2.85;;
67776;SDS011;54576;52.020;5.536;2022-12-20T12:01:17;8.75;;;3.88;;
67776;SDS011;54576;52.020;5.536;2022-12-20T12:06:34;10.00;;;3.30;;
67776;SDS011;54576;52.020;5.536;2022-12-20T12:11:34;6.60;;;2.97;;
67776;SDS011;54576;52.020;5.536;2022-12-20T12:14:04;6.07;;;3.22;;
67776;SDS011;54576;52.020;5.536;2022-12-20T12:16:38;5.45;;;2.80;;
67776;SDS011;54576;52.020;5.536;2022-12-20T12:21:36;6.90;;;2.85;;
67776;SDS011;54576;52.020;5.536;2022-12-20T12:26:42;5.60;;;2.55;;
67776;SDS011;54576;52.020;5.536;2022-12-20T12:37:50;7.88;;;2.63;;
67776;SDS011;54576;52.020;5.536;2022-12-20T12:43:45;4.57;;;2.85;;
67776;SDS011;54576;52.020;5.536;2022-12-20T12:46:18;4.20;;;2.72;;
67776;SDS011;54576;52.020;5.536;2022-12-20T12:49:00;2.78;;;2.25;;
67776;SDS011;54576;52.020;5.536;2022-12-20T12:51:39;4.60;;;2.45;;
67776;SDS011;54576;52.020;5.536;2022-12-20T12:56:43;2.67;;;2.47;;
67776;SDS011;54576;52.020;5.536;2022-12-20T13:11:50;4.00;;;2.78;;
67776;SDS011;54576;52.020;5.536;2022-12-20T13:16:50;6.78;;;4.28;;
67776;SDS011;54576;52.020;5.536;2022-12-20T13:21:54;11.75;;;8.10;;
67776;SDS011;54576;52.020;5.536;2022-12-20T13:29:27;5.22;;;3.40;;
67776;SDS011;54576;52.020;5.536;2022-12-20T13:31:58;7.72;;;3.67;;
67776;SDS011;54576;52.020;5.536;2022-12-20T13:37:55;8.68;;;4.20;;
67776;SDS011;54576;52.020;5.536;2022-12-20T13:41:01;5.22;;;3.33;;
67776;SDS011;54576;52.020;5.536;2022-12-20T13:45:53;6.50;;;3.90;;
67776;SDS011;54576;52.020;5.536;2022-12-20T13:48:26;5.22;;;2.97;;
67776;SDS011;54576;52.020;5.536;2022-12-20T13:50:57;3.20;;;2.90;;
67776;SDS011;54576;52.020;5.536;2022-12-20T13:53:24;3.28;;;2.75;;
67776;SDS011;54576;52.020;5.536;2022-12-20T13:55:51;7.05;;;3.45;;
67776;SDS011;54576;52.020;5.536;2022-12-20T13:58:18;4.40;;;3.15;;
67776;SDS011;54576;52.020;5.536;2022-12-20T14:01:06;12.35;;;3.88;;
67776;SDS011;54576;52.020;5.536;2022-12-20T14:03:41;4.25;;;3.40;;
67776;SDS011;54576;52.020;5.536;2022-12-20T14:06:12;3.88;;;3.47;;
67776;SDS011;54576;52.020;5.536;2022-12-20T14:08:40;5.25;;;3.53;;
67776;SDS011;54576;52.020;5.536;2022-12-20T14:11:17;7.15;;;4.63;;
67776;SDS011;54576;52.020;5.536;2022-12-20T14:13:59;4.30;;;3.00;;
67776;SDS011;54576;52.020;5.536;2022-12-20T14:16:30;4.22;;;3.50;;
67776;SDS011;54576;52.020;5.536;2022-12-20T14:19:00;3.78;;;3.40;;
67776;SDS011;54576;52.020;5.536;2022-12-20T14:21:38;5.63;;;3.38;;
67776;SDS011;54576;52.020;5.536;2022-12-20T14:24:16;4.60;;;3.17;;
67776;SDS011;54576;52.020;5.536;2022-12-20T14:26:46;4.40;;;3.40;;
67776;SDS011;54576;52.020;5.536;2022-12-20T14:29:16;5.80;;;3.22;;
67776;SDS011;54576;52.020;5.536;2022-12-20T14:31:45;17.42;;;3.35;;
67776;SDS011;54576;52.020;5.536;2022-12-20T14:34:17;7.60;;;3.45;;
67776;SDS011;54576;52.020;5.536;2022-12-20T14:36:47;5.85;;;4.13;;
67776;SDS011;54576;52.020;5.536;2022-12-20T14:41:59;5.22;;;3.13;;
67776;SDS011;54576;52.020;5.536;2022-12-20T14:44:31;6.18;;;3.55;;
67776;SDS011;54576;52.020;5.536;2022-12-20T14:46:59;3.78;;;2.75;;
67776;SDS011;54576;52.020;5.536;2022-12-20T14:49:36;3.53;;;3.13;;
67776;SDS011;54576;52.020;5.536;2022-12-20T14:54:42;3.85;;;3.55;;
67776;SDS011;54576;52.020;5.536;2022-12-20T14:57:28;4.13;;;3.05;;
67776;SDS011;54576;52.020;5.536;2022-12-20T15:10:36;5.13;;;3.67;;
67776;SDS011;54576;52.020;5.536;2022-12-20T15:13:02;4.47;;;3.30;;
67776;SDS011;54576;52.020;5.536;2022-12-20T15:15:29;6.63;;;3.92;;
67776;SDS011;54576;52.020;5.536;2022-12-20T15:17:54;5.55;;;3.95;;
67776;SDS011;54576;52.020;5.536;2022-12-20T15:20:20;7.28;;;3.78;;
67776;SDS011;54576;52.020;5.536;2022-12-20T15:22:45;6.25;;;4.10;;
67776;SDS011;54576;52.020;5.536;2022-12-20T15:25:15;6.05;;;4.30;;
67776;SDS011;54576;52.020;5.536;2022-12-20T15:27:41;3.85;;;3.47;;
67776;SDS011;54576;52.020;5.536;2022-12-20T15:30:11;5.40;;;4.40;;
67776;SDS011;54576;52.020;5.536;2022-12-20T15:32:41;6.65;;;5.07;;
67776;SDS011;54576;52.020;5.536;2022-12-20T15:35:13;5.03;;;4.20;;
67776;SDS011;54576;52.020;5.536;2022-12-20T15:37:40;5.00;;;4.50;;
67776;SDS011;54576;52.020;5.536;2022-12-20T15:40:06;7.47;;;5.50;;
67776;SDS011;54576;52.020;5.536;2022-12-20T15:42:37;6.03;;;4.75;;
67776;SDS011;54576;52.020;5.536;2022-12-20T15:45:05;6.00;;;5.43;;
67776;SDS011;54576;52.020;5.536;2022-12-20T15:47:31;10.13;;;7.00;;
67776;SDS011;54576;52.020;5.536;2022-12-20T15:49:56;6.03;;;5.00;;
67776;SDS011;54576;52.020;5.536;2022-12-20T15:52:22;7.70;;;5.13;;
67776;SDS011;54576;52.020;5.536;2022-12-20T15:54:48;5.90;;;4.72;;
67776;SDS011;54576;52.020;5.536;2022-12-20T15:57:14;6.03;;;5.18;;
67776;SDS011;54576;52.020;5.536;2022-12-20T15:59:40;5.75;;;4.90;;
67776;SDS011;54576;52.020;5.536;2022-12-20T16:02:14;6.70;;;4.95;;
67776;SDS011;54576;52.020;5.536;2022-12-20T16:04:46;9.38;;;5.50;;
67776;SDS011;54576;52.020;5.536;2022-12-20T16:07:12;8.63;;;5.40;;
67776;SDS011;54576;52.020;5.536;2022-12-20T16:09:37;6.88;;;5.72;;
67776;SDS011;54576;52.020;5.536;2022-12-20T16:12:04;10.32;;;5.80;;
67776;SDS011;54576;52.020;5.536;2022-12-20T16:14:36;8.23;;;5.68;;
67776;SDS011;54576;52.020;5.536;2022-12-20T16:17:01;6.40;;;5.43;;
67776;SDS011;54576;52.020;5.536;2022-12-20T16:19:27;6.10;;;5.50;;
67776;SDS011;54576;52.020;5.536;2022-12-20T16:21:52;9.88;;;5.43;;
67776;SDS011;54576;52.020;5.536;2022-12-20T16:24:19;6.85;;;5.05;;
67776;SDS011;54576;52.020;5.536;2022-12-20T16:26:45;6.50;;;5.32;;
67776;SDS011;54576;52.020;5.536;2022-12-20T16:29:13;8.45;;;5.82;;
67776;SDS011;54576;52.020;5.536;2022-12-20T16:31:40;6.60;;;5.55;;
67776;SDS011;54576;52.020;5.536;2022-12-20T16:34:11;10.07;;;6.55;;
67776;SDS011;54576;52.020;5.536;2022-12-20T16:36:38;6.10;;;5.45;;
67776;SDS011;54576;52.020;5.536;2022-12-20T16:39:04;7.32;;;6.40;;
67776;SDS011;54576;52.020;5.536;2022-12-20T16:41:35;9.40;;;6.32;;
67776;SDS011;54576;52.020;5.536;2022-12-20T16:44:01;7.85;;;6.53;;
67776;SDS011;54576;52.020;5.536;2022-12-20T16:46:28;33.38;;;13.77;;
67776;SDS011;54576;52.020;5.536;2022-12-20T16:48:55;64.80;;;23.60;;
67776;SDS011;54576;52.020;5.536;2022-12-20T16:51:29;11.13;;;7.53;;
67776;SDS011;54576;52.020;5.536;2022-12-20T16:56:26;13.40;;;9.82;;
67776;SDS011;54576;52.020;5.536;2022-12-20T16:58:52;10.85;;;7.95;;
67776;SDS011;54576;52.020;5.536;2022-12-20T17:01:21;15.15;;;12.50;;
67776;SDS011;54576;52.020;5.536;2022-12-20T17:03:55;50.53;;;29.48;;
67776;SDS011;54576;52.020;5.536;2022-12-20T17:06:21;10.65;;;9.00;;
67776;SDS011;54576;52.020;5.536;2022-12-20T17:08:46;41.17;;;33.85;;